Time;durP1;ratioP1;P1;durP2;ratioP2;P2;SDS_P1;SDS_P2;PMS_P1;PMS_P2;Temp;Humidity;BMP_temperature;BMP_pressure;BME280_temperature;BME280_humidity;BME280_pressure;Samples;Min_cycle;Max_cycle;Signal;HPM_P1;HPM_P2
2023/01/29 00:00:56;;;;;;;27.87;15.58;;;;;;;2.37;83.09;99871.16;1759526;81;21217;-80
2023/01/29 00:04:02;;;;;;;30.10;15.25;;;;;;;1.63;84.63;99869.39;1759530;81;21225;-79
2023/01/29 00:07:07;;;;;;;28.15;16.57;;;;;;;1.49;85.86;99871.05;1759828;81;21852;-80
2023/01/29 00:10:15;;;;;;;33.78;17.15;;;;;;;1.45;86.07;99869.10;1759990;81;21162;-79
2023/01/29 00:13:21;;;;;;;29.48;16.60;;;;;;;1.83;85.83;99856.91;1760290;81;21808;-79
2023/01/29 00:16:27;;;;;;;32.65;16.52;;;;;;;1.43;86.19;99860.30;1758733;81;21182;-79
2023/01/29 00:19:33;;;;;;;29.35;16.70;;;;;;;1.40;86.41;99869.13;1759468;81;21756;-80
2023/01/29 00:22:40;;;;;;;32.75;16.73;;;;;;;1.34;86.64;99869.16;1758679;81;21290;-79
2023/01/29 00:25:45;;;;;;;33.35;16.77;;;;;;;1.31;87.04;99869.90;1759899;81;21225;-79
2023/01/29 00:28:51;;;;;;;28.57;15.43;;;;;;;1.34;87.08;99876.39;1759925;81;21166;-79
2023/01/29 00:31:57;;;;;;;29.15;16.60;;;;;;;1.37;87.15;99873.45;1759147;81;21253;-80
2023/01/29 00:35:03;;;;;;;33.70;16.93;;;;;;;1.38;87.04;99867.92;1759070;81;21210;-79
2023/01/29 00:38:08;;;;;;;33.23;17.67;;;;;;;1.45;87.00;99870.45;1774808;80;21260;-80
2023/01/29 00:44:57;;;;;;;31.57;17.10;;;;;;;1.41;86.71;99857.36;1779171;80;21725;-81
2023/01/29 00:48:03;;;;;;;30.23;17.25;;;;;;;1.45;86.63;99858.81;1779325;80;21236;-81
2023/01/29 00:51:09;;;;;;;28.38;15.85;;;;;;;1.38;86.88;99861.19;1777911;80;22494;-81
2023/01/29 00:54:14;;;;;;;32.30;17.73;;;;;;;1.39;87.15;99862.03;1780008;80;21141;-81
2023/01/29 00:57:19;;;;;;;30.10;16.57;;;;;;;1.46;86.93;99863.25;1779071;80;21177;-80
2023/01/29 01:00:25;;;;;;;31.80;16.52;;;;;;;1.46;86.93;99862.75;1779281;80;21300;-81
2023/01/29 01:03:34;;;;;;;33.25;17.87;;;;;;;1.45;86.89;99861.52;1779276;80;21723;-81
2023/01/29 01:06:39;;;;;;;27.62;14.95;;;;;;;1.46;87.12;99857.86;1779244;80;21173;-81
2023/01/29 01:13:11;;;;;;;33.45;16.80;;;;;;;1.63;86.20;99849.67;1777800;80;21212;-79
2023/01/29 01:16:14;;;;;;;28.62;15.30;;;;;;;1.87;85.90;99848.06;1779204;80;21173;-80
2023/01/29 01:19:08;;;;;;;30.65;16.73;;;;;;;1.51;86.56;99850.23;1779731;80;21193;-79
2023/01/29 01:22:14;;;;;;;29.15;16.25;;;;;;;1.52;86.45;99846.05;1755501;80;21185;-79
2023/01/29 01:25:20;;;;;;;30.52;15.50;;;;;;;1.54;86.60;99844.06;1777921;80;21240;-79
2023/01/29 01:28:27;;;;;;;35.40;17.67;;;;;;;1.69;85.84;99852.69;1774008;80;21232;-79
2023/01/29 01:31:32;;;;;;;39.38;17.37;;;;;;;1.27;87.18;99849.97;1779116;80;21192;-79
2023/01/29 01:34:39;;;;;;;29.92;15.63;;;;;;;1.22;88.12;99848.16;1777551;80;21216;-79
2023/01/29 01:37:46;;;;;;;30.70;15.83;;;;;;;1.13;88.46;99846.69;1777644;80;21843;-79
2023/01/29 01:40:52;;;;;;;32.93;17.10;;;;;;;1.10;88.94;99845.11;1779252;80;21201;-79
2023/01/29 01:44:03;;;;;;;29.27;16.17;;;;;;;1.15;89.01;99837.50;1779109;80;21193;-80
2023/01/29 01:47:09;;;;;;;37.93;16.70;;;;;;;1.20;88.67;99844.70;1779039;80;21240;-79
2023/01/29 01:50:19;;;;;;;29.55;16.17;;;;;;;1.54;87.21;99845.91;1777601;80;21169;-79
2023/01/29 01:53:43;;;;;;;29.87;15.88;;;;;;;1.35;87.71;99847.10;1777890;79;21213;-79
2023/01/29 01:56:54;;;;;;;28.40;16.05;;;;;;;1.27;88.00;99849.97;1778938;80;21185;-80
2023/01/29 02:00:10;;;;;;;27.80;15.15;;;;;;;1.42;87.58;99848.31;1779869;80;21752;-79
2023/01/29 02:10:15;;;;;;;31.62;16.07;;;;;;;1.17;87.96;99849.48;1779199;80;21740;-80
2023/01/29 02:13:20;;;;;;;31.70;17.07;;;;;;;1.17;88.40;99846.80;1780286;80;21177;-80
2023/01/29 02:16:27;;;;;;;31.87;16.75;;;;;;;1.08;88.62;99851.11;1780050;80;21129;-79
2023/01/29 02:19:57;;;;;;;28.60;16.90;;;;;;;1.06;88.63;99849.05;1780170;80;21138;-80
2023/01/29 02:23:12;;;;;;;28.32;17.25;;;;;;;1.07;88.80;99853.94;1780202;80;21748;-80
2023/01/29 02:26:38;;;;;;;30.40;16.75;;;;;;;1.01;88.76;99849.92;1779288;80;21288;-80
2023/01/29 02:30:09;;;;;;;28.17;16.23;;;;;;;0.97;88.97;99856.53;1779175;80;21181;-81
2023/01/29 02:33:47;;;;;;;28.10;16.05;;;;;;;0.93;89.28;99853.23;1778413;80;21245;-81
2023/01/29 02:37:08;;;;;;;28.40;15.43;;;;;;;1.03;89.14;99850.63;1778610;80;21903;-81
2023/01/29 02:40:38;;;;;;;;;;;;;;;1.00;89.28;99853.59;1779321;80;21260;-80
2023/01/29 02:43:54;;;;;;;26.30;15.68;;;;;;;0.91;89.64;99851.66;1778505;80;20218;-81
2023/01/29 02:47:13;;;;;;;29.65;15.72;;;;;;;0.85;89.85;99845.41;1777747;80;21232;-81
2023/01/29 02:50:27;;;;;;;28.50;16.70;;;;;;;0.76;90.07;99845.70;1779418;80;21181;-79
2023/01/29 02:53:45;;;;;;;28.35;15.98;;;;;;;0.82;90.12;99847.03;1777780;80;21542;-80
2023/01/29 02:57:00;;;;;;;25.85;15.03;;;;;;;0.78;90.18;99842.88;1779422;80;21221;-80
2023/01/29 03:00:13;;;;;;;26.93;15.32;;;;;;;0.71;90.63;99839.84;1779243;80;21145;-79
2023/01/29 03:03:27;;;;;;;25.02;14.85;;;;;;;0.69;90.60;99839.09;1778867;80;21193;-79
2023/01/29 03:06:50;;;;;;;27.67;14.43;;;;;;;0.74;90.52;99842.26;1779083;80;21798;-79
2023/01/29 03:09:58;;;;;;;25.55;16.62;;;;;;;0.75;90.58;99838.12;1779202;80;21185;-82
2023/01/29 03:13:28;;;;;;;30.52;14.95;;;;;;;0.75;90.40;99834.08;1777950;80;21217;-82
2023/01/29 03:16:56;;;;;;;22.93;14.38;;;;;;;0.76;90.50;99830.39;1779359;80;21204;-79
2023/01/29 03:20:02;;;;;;;34.10;16.60;;;;;;;0.78;90.62;99831.61;1779192;80;21200;-80
2023/01/29 03:23:26;;;;;;;27.05;15.85;;;;;;;0.83;90.33;99829.88;1777954;80;21250;-79
2023/01/29 03:33:18;;;;;;;27.50;15.68;;;;;;;0.71;90.18;99823.69;1778935;80;21252;-79
2023/01/29 03:36:44;;;;;;;27.48;15.48;;;;;;;0.81;89.84;99825.13;1779165;80;21181;-81
2023/01/29 03:39:48;;;;;;;30.17;16.02;;;;;;;0.85;89.55;99830.60;1773686;80;21744;-82
2023/01/29 03:43:09;;;;;;;28.77;13.62;;;;;;;0.80;89.53;99835.51;1746179;82;21233;-81
2023/01/29 03:46:33;;;;;;;29.20;15.78;;;;;;;0.74;89.68;99844.95;1747689;82;21207;-79
2023/01/29 03:49:56;;;;;;;32.38;16.32;;;;;;;0.75;89.81;99846.19;1747676;82;21250;-79
2023/01/29 03:53:20;;;;;;;29.02;15.80;;;;;;;0.83;89.41;99844.20;1747027;82;21773;-79
2023/01/29 03:57:01;;;;;;;26.37;14.70;;;;;;;0.87;89.10;99852.39;1747523;82;21254;-79
2023/01/29 04:00:13;;;;;;;;;;;;;;;0.89;88.72;99848.22;1750169;82;21749;-79
2023/01/29 04:03:31;;;;;;;27.00;15.95;;;;;;;0.73;89.13;99852.17;1747475;82;20633;-79
2023/01/29 04:06:40;;;;;;;27.13;14.70;;;;;;;0.63;89.62;99852.56;1747561;82;21191;-79
2023/01/29 04:10:10;;;;;;;28.73;14.47;;;;;;;0.78;89.29;99850.95;1721977;82;21219;-80
2023/01/29 04:13:18;;;;;;;23.20;14.10;;;;;;;0.74;89.06;99848.49;1747823;82;21872;-79
2023/01/29 04:16:43;;;;;;;31.97;16.05;;;;;;;0.75;88.94;99852.03;1747143;82;21764;-80
2023/01/29 04:20:02;;;;;;;28.20;14.45;;;;;;;0.72;88.97;99850.97;1748597;82;21163;-79
2023/01/29 04:23:07;;;;;;;29.23;15.98;;;;;;;0.70;89.09;99844.34;1747127;82;21226;-79
2023/01/29 04:27:02;;;;;;;29.90;14.53;;;;;;;0.74;89.03;99849.84;1747569;82;21175;-80
2023/01/29 04:30:59;;;;;;;30.97;16.10;;;;;;;0.73;88.91;99842.75;1747472;82;21297;-80
2023/01/29 04:34:28;;;;;;;31.12;14.07;;;;;;;0.75;89.06;99845.31;1746660;82;21234;-80
2023/01/29 04:37:55;;;;;;;30.27;16.48;;;;;;;0.72;89.23;99835.66;1747606;82;21175;-79
2023/01/29 04:41:24;;;;;;;26.82;15.28;;;;;;;0.70;89.49;99843.48;1747549;81;21258;-80
2023/01/29 04:45:03;;;;;;;24.20;14.38;;;;;;;0.66;89.69;99842.02;1735728;82;21725;-79
2023/01/29 04:48:22;;;;;;;30.25;14.63;;;;;;;0.54;90.11;99845.72;1737730;82;21210;-80
2023/01/29 04:51:47;;;;;;;27.75;15.35;;;;;;;0.49;90.64;99843.40;1746200;82;21206;-80
2023/01/29 04:55:25;;;;;;;27.30;15.05;;;;;;;0.67;89.93;99840.56;1746660;82;21757;-81
2023/01/29 04:58:49;;;;;;;26.55;14.40;;;;;;;0.65;89.86;99841.16;1747692;82;21198;-80
2023/01/29 05:01:55;;;;;;;24.23;14.40;;;;;;;0.55;90.50;99850.12;1747699;82;21476;-80
2023/01/29 05:05:03;;;;;;;24.75;14.75;;;;;;;0.63;90.67;99851.70;1746972;82;21206;-81
2023/01/29 05:08:08;;;;;;;24.95;13.70;;;;;;;0.62;90.45;99852.20;1747555;82;21199;-81
2023/01/29 05:11:14;;;;;;;27.35;15.45;;;;;;;0.64;90.41;99856.95;1747579;82;21260;-80
2023/01/29 05:14:19;;;;;;;22.62;13.60;;;;;;;0.78;90.02;99855.84;1745888;82;21230;-80
2023/01/29 05:17:27;;;;;;;22.77;12.95;;;;;;;0.62;89.88;99856.73;1747413;82;21198;-80
2023/01/29 05:20:33;;;;;;;23.15;13.80;;;;;;;0.53;90.34;99858.33;1747573;82;21182;-81
2023/01/29 05:23:38;;;;;;;28.05;14.15;;;;;;;0.38;91.21;99860.91;1746259;82;21218;-80
2023/01/29 05:30:09;;;;;;;27.32;14.03;;;;;;;0.45;91.53;99862.11;1747454;82;21190;-80
2023/01/29 05:33:30;;;;;;;27.17;15.08;;;;;;;0.24;91.65;99863.34;1747247;82;21226;-81
2023/01/29 05:36:36;;;;;;;25.30;13.60;;;;;;;0.27;91.96;99866.27;1746105;82;21226;-79
2023/01/29 05:39:41;;;;;;;25.10;14.53;;;;;;;0.28;92.01;99870.66;1746948;82;21253;-79
2023/01/29 05:42:49;;;;;;;24.55;13.40;;;;;;;0.27;91.93;99867.12;1723941;82;21282;-79
2023/01/29 05:45:57;;;;;;;22.40;12.98;;;;;;;0.34;91.83;99882.30;1712937;83;21556;-80
2023/01/29 05:48:50;;;;;;;26.33;13.78;;;;;;;0.41;91.33;99880.83;1759688;81;21178;-80
2023/01/29 05:51:36;;;;;;;24.20;12.70;;;;;;;0.45;91.35;99889.02;1759856;81;21799;-79
2023/01/29 05:54:29;;;;;;;25.43;14.18;;;;;;;0.57;91.54;99886.70;1759006;81;21223;-82
2023/01/29 05:57:15;;;;;;;28.12;14.00;;;;;;;0.44;91.47;99892.70;1759847;81;21162;-79
2023/01/29 06:00:08;;;;;;;23.38;14.20;;;;;;;0.47;91.50;99896.01;1760035;81;21233;-79
2023/01/29 06:02:55;;;;;;;26.12;14.95;;;;;;;0.45;91.83;99901.98;1759876;81;21182;-79
2023/01/29 06:05:47;;;;;;;28.75;15.03;;;;;;;0.40;91.82;99897.45;1759387;81;21237;-79
2023/01/29 06:08:34;;;;;;;24.52;13.85;;;;;;;0.49;91.92;99893.19;1760000;81;21186;-79
2023/01/29 06:11:26;;;;;;;23.92;12.95;;;;;;;0.57;91.58;99892.09;1759794;81;21179;-79
2023/01/29 06:14:14;;;;;;;22.95;14.05;;;;;;;0.58;91.48;99892.45;1759925;81;21229;-80
2023/01/29 06:17:07;;;;;;;28.98;14.65;;;;;;;0.66;91.25;99897.20;1758475;81;21252;-80
2023/01/29 06:19:53;;;;;;;23.02;13.83;;;;;;;0.68;91.16;99884.00;1759871;81;21179;-80
2023/01/29 06:22:45;;;;;;;24.20;14.23;;;;;;;0.76;91.26;99886.08;1759911;81;22447;-79
2023/01/29 06:25:51;;;;;;;22.05;13.18;;;;;;;0.86;90.77;99886.19;1758973;81;21760;-79
2023/01/29 06:28:51;;;;;;;22.27;12.28;;;;;;;0.93;90.39;99884.69;1759965;81;21717;-80
2023/01/29 06:31:55;;;;;;;21.80;12.43;;;;;;;0.96;89.96;99886.66;1743113;81;21170;-79
2023/01/29 06:35:01;;;;;;;19.92;13.00;;;;;;;1.05;89.11;99881.01;1759977;81;21194;-79
2023/01/29 06:38:08;;;;;;;25.15;13.80;;;;;;;0.91;89.05;99879.45;1758636;81;21728;-79
2023/01/29 06:41:24;;;;;;;22.35;11.60;;;;;;;0.89;89.31;99877.34;1758963;81;21210;-79
2023/01/29 06:44:26;;;;;;;32.25;16.30;;;;;;;0.90;89.45;99879.58;1758724;80;21201;-79
2023/01/29 06:47:33;;;;;;;190.20;54.73;;;;;;;0.90;89.31;99882.27;1758870;81;21190;-82
2023/01/29 06:50:38;;;;;;;76.07;28.52;;;;;;;0.90;89.08;99889.86;1760090;81;21237;-82
2023/01/29 06:53:37;;;;;;;76.25;27.75;;;;;;;0.88;89.00;99889.11;1759923;81;21178;-81
2023/01/29 06:56:45;;;;;;;75.75;29.15;;;;;;;0.79;89.15;99887.66;1758575;81;21194;-80
2023/01/29 06:59:51;;;;;;;29.40;16.80;;;;;;;0.78;89.06;99891.33;1759932;81;21190;-80
2023/01/29 07:02:57;;;;;;;26.02;14.93;;;;;;;0.75;89.35;99897.80;1760019;81;22472;-80
2023/01/29 07:06:03;;;;;;;18.92;12.98;;;;;;;0.82;89.60;99893.66;1759896;81;21745;-79
2023/01/29 07:09:09;;;;;;;23.32;13.43;;;;;;;0.93;89.48;99884.20;1759820;81;21717;-80
2023/01/29 07:12:17;;;;;;;18.27;12.25;;;;;;;1.03;89.01;99889.69;1760598;81;21588;-80
2023/01/29 07:15:21;;;;;;;21.93;14.28;;;;;;;1.10;88.44;99886.02;1759855;81;21181;-80
2023/01/29 07:18:27;;;;;;;26.15;14.30;;;;;;;1.12;88.26;99888.93;1759980;81;21197;-80
2023/01/29 07:21:34;;;;;;;23.67;12.93;;;;;;;1.16;88.06;99889.55;1759847;81;21182;-80
2023/01/29 07:24:39;;;;;;;26.17;13.98;;;;;;;1.28;87.66;99885.35;1759804;81;21182;-81
2023/01/29 07:27:38;;;;;;;27.62;15.60;;;;;;;1.31;87.23;99887.41;1758925;81;21721;-81
2023/01/29 07:30:31;;;;;;;21.10;13.72;;;;;;;1.33;86.91;99891.70;1759982;81;21250;-80
2023/01/29 07:33:37;;;;;;;27.52;14.30;;;;;;;2.24;83.42;99897.84;1759539;81;21225;-81
2023/01/29 07:36:36;;;;;;;26.35;13.55;;;;;;;2.35;82.62;99896.91;1758643;81;21245;-80
2023/01/29 07:39:41;;;;;;;21.00;13.72;;;;;;;1.37;85.03;99906.64;1759775;81;21173;-79
2023/01/29 07:42:47;;;;;;;28.87;16.75;;;;;;;2.01;84.68;99918.72;1759711;81;21210;-80
2023/01/29 07:45:52;;;;;;;30.65;15.45;;;;;;;1.39;83.53;99913.23;1758757;79;21720;-80
2023/01/29 07:48:58;;;;;;;26.70;16.30;;;;;;;1.29;84.45;99911.80;1758483;81;21190;-80
2023/01/29 07:52:04;;;;;;;33.85;16.17;;;;;;;1.79;83.92;99914.31;1759860;81;21468;-80
2023/01/29 07:55:10;;;;;;;21.77;13.70;;;;;;;1.20;85.21;99912.06;1759714;81;21190;-80
2023/01/29 07:58:16;;;;;;;29.92;14.73;;;;;;;0.93;86.14;99914.31;1758877;81;21218;-80
2023/01/29 08:01:23;;;;;;;22.52;12.65;;;;;;;1.19;85.37;99900.93;1759790;81;21214;-80
2023/01/29 08:04:29;;;;;;;28.32;16.90;;;;;;;1.16;85.72;99902.52;1760020;81;21240;-80
2023/01/29 08:07:36;;;;;;;27.13;14.40;;;;;;;1.36;85.27;99904.91;1759466;81;21721;-80
2023/01/29 08:10:44;;;;;;;21.82;13.65;;;;;;;1.40;84.38;99915.80;1759890;81;21181;-80
2023/01/29 08:13:51;;;;;;;21.70;13.88;;;;;;;1.43;84.04;99914.70;1759885;81;21234;-79
2023/01/29 08:16:56;;;;;;;23.15;13.08;;;;;;;1.32;84.61;99921.45;1759770;81;21158;-79
2023/01/29 08:20:01;;;;;;;24.72;13.90;;;;;;;1.45;84.54;99908.67;1759943;81;21800;-80
2023/01/29 08:23:09;;;;;;;21.50;13.80;;;;;;;1.74;83.39;99911.62;1759890;81;21182;-80
2023/01/29 08:26:15;;;;;;;24.87;14.40;;;;;;;1.63;83.93;99908.48;1758559;81;21182;-80
2023/01/29 08:29:21;;;;;;;27.52;15.40;;;;;;;1.75;83.34;99917.40;1759886;81;21158;-80
2023/01/29 08:32:29;;;;;;;21.85;14.70;;;;;;;1.79;83.08;99919.70;1758547;80;21776;-80
2023/01/29 08:35:36;;;;;;;22.32;14.00;;;;;;;1.79;82.74;99919.70;1759823;81;21194;-80
2023/01/29 08:38:40;;;;;;;29.18;16.15;;;;;;;1.64;82.92;99918.28;1759011;81;21269;-81
2023/01/29 08:41:47;;;;;;;27.82;15.68;;;;;;;1.63;82.54;99909.83;1759739;81;21166;-80
2023/01/29 08:44:54;;;;;;;27.60;16.23;;;;;;;1.84;81.79;99910.37;1759844;81;21194;-80
2023/01/29 08:47:53;;;;;;;48.33;24.60;;;;;;;1.86;81.50;99908.39;1758583;81;21189;-80
2023/01/29 08:50:46;;;;;;;30.02;16.60;;;;;;;1.61;81.86;99909.63;1759884;81;21162;-80
2023/01/29 08:53:33;;;;;;;36.45;17.60;;;;;;;1.40;82.73;99902.82;1759761;81;21193;-80
2023/01/29 08:56:26;;;;;;;33.75;17.42;;;;;;;1.36;82.95;99900.01;1759980;81;21162;-80
2023/01/29 08:59:32;;;;;;;45.17;20.77;;;;;;;1.50;83.10;99887.09;1758925;81;21222;-80
2023/01/29 09:02:39;;;;;;;24.57;14.58;;;;;;;1.50;83.10;99887.09;1759735;81;21550;-80
2023/01/29 09:05:46;;;;;;;34.25;16.25;;;;;;;1.63;82.87;99882.02;1759931;81;21174;-80
2023/01/29 09:08:51;;;;;;;25.25;14.55;;;;;;;1.63;83.07;99883.38;1758700;81;21760;-80
2023/01/29 09:11:56;;;;;;;28.32;15.60;;;;;;;1.65;83.08;99871.48;1759657;81;21178;-79
2023/01/29 09:15:02;;;;;;;33.08;17.37;;;;;;;1.65;82.79;99874.19;1759741;81;21879;-79
2023/01/29 09:18:12;;;;;;;28.15;17.52;;;;;;;1.62;82.62;99874.44;1759730;81;21268;-79
2023/01/29 09:21:18;;;;;;;24.72;14.85;;;;;;;1.68;82.55;99877.95;1759852;81;21182;-80
2023/01/29 09:24:24;;;;;;;30.65;15.60;;;;;;;1.59;82.24;99877.38;1759739;81;21166;-80
2023/01/29 09:27:24;;;;;;;35.40;18.65;;;;;;;1.55;82.04;99871.87;1759679;81;21182;-80
2023/01/29 09:30:28;;;;;;;31.10;18.32;;;;;;;1.63;81.92;99862.66;1759791;81;21445;-81
2023/01/29 09:33:34;;;;;;;30.23;18.67;;;;;;;1.71;82.37;99856.13;1759381;81;21205;-81
2023/01/29 09:36:39;;;;;;;40.48;19.23;;;;;;;1.85;81.84;99863.04;1759773;81;21808;-81
2023/01/29 09:39:45;;;;;;;39.03;24.92;;;;;;;1.79;81.82;99860.38;1758844;81;21807;-81
2023/01/29 09:42:59;;;;;;;31.23;18.00;;;;;;;2.13;81.62;99849.37;1759473;81;21232;-82
2023/01/29 09:46:08;;;;;;;34.60;19.20;;;;;;;2.01;80.91;99858.52;1760529;81;21178;-82
2023/01/29 09:49:23;;;;;;;40.48;22.10;;;;;;;2.23;79.90;99866.46;1783875;80;21165;-80
2023/01/29 09:52:45;;;;;;;42.00;21.23;;;;;;;2.24;79.49;99854.67;1784601;80;21228;-79
2023/01/29 09:55:58;;;;;;;34.58;17.80;;;;;;;1.91;80.34;99861.16;1783976;80;21236;-80
2023/01/29 09:59:06;;;;;;;39.65;20.12;;;;;;;1.73;80.75;99847.89;1782470;80;21201;-80
2023/01/29 10:02:49;;;;;;;34.18;18.85;;;;;;;1.77;81.26;99863.68;1783680;80;21177;-79
2023/01/29 10:06:11;;;;;;;34.83;18.80;;;;;;;1.76;80.90;99849.84;1782156;80;21771;-79
2023/01/29 10:09:58;;;;;;;30.70;19.77;;;;;;;1.87;80.94;99859.70;1783212;80;21296;-80
2023/01/29 10:13:23;;;;;;;33.83;19.50;;;;;;;1.80;81.03;99847.75;1784681;80;21176;-81
2023/01/29 10:16:34;;;;;;;41.73;24.87;;;;;;;1.89;80.37;99856.89;1784661;80;21176;-80
2023/01/29 10:19:57;;;;;;;35.13;22.20;;;;;;;2.17;79.37;99854.02;1783939;80;21204;-80
2023/01/29 10:23:24;;;;;;;31.05;19.17;;;;;;;2.15;80.00;99856.83;1784661;80;21177;-80
2023/01/29 10:26:36;;;;;;;29.40;16.82;;;;;;;2.16;79.90;99857.17;1783254;80;21173;-80
2023/01/29 10:29:34;;;;;;;36.10;20.27;;;;;;;2.08;79.51;99854.81;1763075;80;21751;-80
2023/01/29 10:32:40;;;;;;;51.13;29.25;;;;;;;1.96;79.99;99849.97;1784445;80;21740;-79
2023/01/29 10:35:59;;;;;;;44.75;24.25;;;;;;;2.08;79.42;99848.92;1784639;80;21118;-80
2023/01/29 10:39:05;;;;;;;37.93;19.05;;;;;;;2.35;79.75;99842.07;1785746;80;21244;-80
2023/01/29 10:42:19;;;;;;;37.67;20.70;;;;;;;2.65;78.48;99843.91;1785683;80;21129;-80
2023/01/29 10:45:45;;;;;;;33.48;20.55;;;;;;;2.70;77.61;99858.71;1783643;80;21200;-79
2023/01/29 10:49:34;;;;;;;40.85;21.95;;;;;;;2.66;77.41;99849.17;1778736;80;21340;-80
2023/01/29 10:53:05;;;;;;;36.15;19.87;;;;;;;2.47;77.21;99846.41;1779216;80;21358;-80
2023/01/29 10:56:35;;;;;;;39.53;22.48;;;;;;;2.47;77.21;99846.41;1779191;80;21697;-79
2023/01/29 11:00:09;;;;;;;39.08;22.90;;;;;;;2.32;77.66;99849.11;1779112;80;21240;-80
2023/01/29 12:58:29;;;;;;;41.35;22.80;;;;;;;1.26;84.65;99853.62;1791033;79;28192;-80
2023/01/29 13:01:43;;;;;;;;;;;;;;;1.34;84.16;99864.27;1764210;81;21156;-80
2023/01/29 13:04:52;;;;;;;49.70;23.30;;;;;;;1.21;83.26;99881.44;1761725;81;20214;-79
2023/01/29 13:08:17;;;;;;;43.83;22.20;;;;;;;1.25;82.33;99865.88;1761582;81;21169;-79
2023/01/29 13:11:27;;;;;;;51.98;23.27;;;;;;;1.24;81.92;99869.56;1761412;81;21185;-79
2023/01/29 13:14:50;;;;;;;42.60;21.75;;;;;;;1.22;81.98;99871.52;1761782;81;21153;-79
2023/01/29 13:17:54;;;;;;;44.05;21.80;;;;;;;1.18;81.59;99873.63;1722673;81;21165;-79
2023/01/29 13:20:46;;;;;;;44.83;22.45;;;;;;;1.03;81.85;99877.56;1760580;81;21165;-79
2023/01/29 13:23:43;;;;;;;48.60;23.12;;;;;;;0.86;83.06;99879.46;1761086;81;21188;-79
2023/01/29 13:26:37;;;;;;;45.15;23.95;;;;;;;0.94;82.95;99879.20;1759599;81;21216;-79
2023/01/29 13:29:43;;;;;;;44.67;24.20;;;;;;;0.98;82.89;99881.13;1759664;81;21177;-79
2023/01/29 13:32:41;;;;;;;;;;;;;;;1.02;82.72;99881.25;1762350;81;21184;-79
2023/01/29 13:35:48;;;;;;;54.03;26.00;;;;;;;1.06;82.19;99885.90;1759582;81;20238;-79
2023/01/29 13:38:53;;;;;;;40.92;21.73;;;;;;;1.19;81.94;99900.93;1761144;81;21869;-79
2023/01/29 13:41:58;;;;;;;45.03;24.00;;;;;;;1.26;80.99;99902.61;1739456;81;21295;-79
2023/01/29 13:45:04;;;;;;;46.25;24.65;;;;;;;1.18;80.78;99913.19;1762057;81;21742;-80
2023/01/29 13:48:28;;;;;;;46.50;24.65;;;;;;;1.21;81.20;99909.73;1755924;81;21219;-79
2023/01/29 13:51:38;;;;;;;46.95;23.92;;;;;;;1.23;80.42;99920.40;1729380;83;21251;-79
2023/01/29 13:54:43;;;;;;;49.65;23.57;;;;;;;0.96;81.27;99919.47;1730988;83;21240;-79
2023/01/29 13:57:59;;;;;;;45.08;24.95;;;;;;;0.95;81.76;99925.84;1720221;82;21219;-79
2023/01/29 14:01:06;;;;;;;46.25;24.25;;;;;;;0.95;81.94;99921.30;1700450;84;21313;-79
2023/01/29 14:04:32;;;;;;;46.28;25.90;;;;;;;0.96;82.25;99927.55;1698734;84;21239;-79
2023/01/29 14:07:55;;;;;;;61.18;31.87;;;;;;;1.04;82.05;99913.47;1699567;84;21227;-79
2023/01/29 14:11:25;;;;;;;54.18;31.02;;;;;;;1.05;81.55;99912.48;1700386;84;21187;-79
2023/01/29 14:15:04;;;;;;;44.58;22.73;;;;;;;1.01;81.71;99928.02;1700281;84;21175;-79
2023/01/29 14:18:26;;;;;;;43.40;22.40;;;;;;;0.96;81.33;99923.01;1695021;84;21207;-80
2023/01/29 14:21:37;;;;;;;53.25;26.00;;;;;;;0.80;82.09;99923.90;1699973;84;21191;-79
2023/01/29 14:24:43;;;;;;;51.77;27.35;;;;;;;0.81;82.33;99925.61;1698728;84;21203;-79
2023/01/29 14:27:50;;;;;;;43.98;26.07;;;;;;;0.77;82.42;99926.83;1699360;84;21211;-79
2023/01/29 14:30:53;;;;;;;44.80;25.43;;;;;;;0.73;82.67;99926.20;1679418;84;21183;-79
2023/01/29 14:33:59;;;;;;;52.65;26.70;;;;;;;0.79;82.29;99919.96;1700148;84;21196;-79
2023/01/29 14:37:27;;;;;;;42.70;25.68;;;;;;;0.74;82.34;99928.41;1700169;84;21175;-81
2023/01/29 14:40:35;;;;;;;41.73;23.35;;;;;;;0.63;82.73;99921.69;1697099;84;21167;-79
2023/01/29 14:43:41;;;;;;;44.90;23.60;;;;;;;0.79;82.36;99917.27;1700887;84;21187;-79
2023/01/29 14:46:48;;;;;;;39.50;21.82;;;;;;;0.81;81.66;99928.79;1700669;84;21195;-79
2023/01/29 14:50:02;;;;;;;39.75;21.33;;;;;;;0.78;81.53;99924.98;1700062;84;21191;-79
2023/01/29 14:53:36;;;;;;;40.83;22.50;;;;;;;0.75;81.83;99926.08;1700330;84;21200;-79
2023/01/29 14:56:53;;;;;;;46.68;22.05;;;;;;;0.73;81.67;99929.39;1700230;84;21250;-79
2023/01/29 15:00:08;;;;;;;39.63;21.90;;;;;;;0.74;81.72;99930.61;1725075;82;21224;-79
2023/01/29 15:03:20;;;;;;;37.95;21.05;;;;;;;0.59;82.23;99927.80;1730216;83;21200;-79
2023/01/29 15:06:36;;;;;;;41.53;22.58;;;;;;;0.61;82.56;99932.59;1710332;82;21239;-79
2023/01/29 15:09:56;;;;;;;41.00;21.23;;;;;;;0.46;83.09;99938.67;1730347;83;21200;-79
2023/01/29 15:13:13;;;;;;;40.58;22.40;;;;;;;0.59;82.98;99960.09;1729488;83;21212;-80
2023/01/29 15:16:34;;;;;;;43.65;21.95;;;;;;;0.62;82.37;99965.25;1728817;83;21256;-79
2023/01/29 15:19:48;;;;;;;37.25;20.23;;;;;;;0.62;82.25;99956.33;1728816;83;21201;-79
2023/01/29 15:22:55;;;;;;;40.95;22.27;;;;;;;0.54;82.68;99966.34;1730127;83;21181;-79
2023/01/29 15:26:05;;;;;;;45.70;22.48;;;;;;;0.66;82.45;99970.77;1730146;83;21204;-79
2023/01/29 15:29:12;;;;;;;39.10;21.68;;;;;;;0.60;82.16;99966.34;1729118;83;21263;-79
2023/01/29 15:32:16;;;;;;;35.88;21.10;;;;;;;0.63;82.09;99970.14;1730231;83;21200;-79
2023/01/29 15:35:19;;;;;;;34.27;19.98;;;;;;;0.55;82.41;99968.05;1730094;83;21204;-79
2023/01/29 15:38:29;;;;;;;34.53;19.05;;;;;;;0.43;82.83;99959.11;1729938;83;21197;-79
2023/01/29 15:41:36;;;;;;;40.95;21.52;;;;;;;0.50;82.78;99952.75;1730582;83;21240;-79
2023/01/29 15:44:42;;;;;;;33.90;20.15;;;;;;;0.47;82.69;99930.99;1729333;83;21303;-79
2023/01/29 15:47:48;;;;;;;39.08;21.68;;;;;;;0.54;82.32;99934.04;1730312;81;21197;-79
2023/01/29 15:50:54;;;;;;;41.37;20.90;;;;;;;0.55;82.36;99941.13;1730258;83;21188;-79
2023/01/29 15:54:03;;;;;;;39.65;22.13;;;;;;;0.56;82.66;99960.33;1730151;83;21189;-79
2023/01/29 15:57:12;;;;;;;39.58;20.68;;;;;;;0.46;82.98;99958.00;1728762;83;21199;-81
2023/01/29 16:00:32;;;;;;;42.55;21.17;;;;;;;0.34;83.31;99967.91;1728932;83;21220;-81
2023/01/29 16:03:40;;;;;;;35.88;20.45;;;;;;;0.42;82.93;99972.17;1730171;83;21196;-79
2023/01/29 16:06:47;;;;;;;45.12;24.00;;;;;;;0.32;83.39;99964.46;1730130;83;21193;-79
2023/01/29 16:09:53;;;;;;;42.90;22.00;;;;;;;0.45;83.04;99963.87;1729153;83;21542;-79
2023/01/29 16:12:59;;;;;;;41.77;22.02;;;;;;;0.29;83.63;99965.21;1730186;83;21244;-79
2023/01/29 16:16:08;;;;;;;45.85;22.52;;;;;;;0.25;83.72;99967.27;1728924;82;21243;-79
2023/01/29 16:19:31;;;;;;;33.35;20.05;;;;;;;0.24;83.70;99967.77;1731112;83;21162;-79
2023/01/29 16:22:41;;;;;;;37.75;21.50;;;;;;;0.46;83.25;99980.88;1731065;83;21751;-79
2023/01/29 16:25:47;;;;;;;64.25;30.05;;;;;;;0.41;83.42;99967.78;1731294;83;21200;-79
2023/01/29 16:28:53;;;;;;;48.33;25.60;;;;;;;0.27;84.12;99962.62;1730419;83;21227;-80
2023/01/29 16:32:01;;;;;;;40.52;22.22;;;;;;;0.32;83.96;99981.09;1730118;83;21189;-79
2023/01/29 16:35:08;;;;;;;45.65;25.00;;;;;;;0.39;83.79;99978.31;1730137;83;21200;-79
2023/01/29 16:38:27;;;;;;;39.05;24.37;;;;;;;0.34;83.72;99980.51;1729063;83;21331;-80
2023/01/29 16:41:38;;;;;;;45.55;23.40;;;;;;;0.30;83.88;99985.75;1728760;83;21761;-79
2023/01/29 16:44:45;;;;;;;44.75;25.97;;;;;;;0.30;84.12;99991.98;1729870;83;21758;-79
2023/01/29 16:47:52;;;;;;;49.50;25.80;;;;;;;0.36;83.76;99991.99;1730056;81;21208;-79
2023/01/29 16:50:58;;;;;;;44.15;24.82;;;;;;;0.45;83.48;100000.20;1730335;83;21188;-79
2023/01/29 16:54:22;;;;;;;53.40;26.35;;;;;;;0.23;83.76;99995.62;1730233;83;21248;-79
2023/01/29 16:57:35;;;;;;;50.58;26.40;;;;;;;0.27;83.88;99992.70;1730373;83;21200;-79
2023/01/29 17:00:42;;;;;;;48.17;26.23;;;;;;;0.39;83.48;99993.97;1730172;83;21256;-79
2023/01/29 17:03:48;;;;;;;52.13;29.63;;;;;;;0.43;82.68;99990.06;1730842;83;21228;-79
2023/01/29 17:06:56;;;;;;;53.28;28.83;;;;;;;0.44;82.46;99981.50;1730269;83;21196;-79